createdAt,value
2024-01-25T00:01:34.811Z,7.87
2024-01-25T00:04:03.059Z,7.89
2024-01-25T00:06:32.761Z,7.87
2024-01-25T00:09:01.933Z,7.89
2024-01-25T00:11:32.652Z,7.93
2024-01-25T00:14:00.715Z,7.90
2024-01-25T00:16:29.765Z,7.88
2024-01-25T00:18:58.267Z,7.81
2024-01-25T00:21:26.825Z,7.79
2024-01-25T00:23:56.371Z,7.72
2024-01-25T00:26:24.709Z,7.63
2024-01-25T00:28:52.994Z,7.76
2024-01-25T00:31:21.691Z,7.72
2024-01-25T00:33:50.034Z,7.76
2024-01-25T00:36:19.951Z,7.83
2024-01-25T00:38:48.893Z,7.76
2024-01-25T00:41:20.098Z,7.76
2024-01-25T00:43:48.988Z,7.75
2024-01-25T00:46:19.210Z,7.70
2024-01-25T00:48:47.974Z,7.73
2024-01-25T00:51:18.255Z,7.73
2024-01-25T00:53:46.823Z,7.67
2024-01-25T00:56:15.978Z,7.44
2024-01-25T00:58:46.875Z,7.57
2024-01-25T01:01:15.725Z,7.72
2024-01-25T01:03:44.805Z,7.78
2024-01-25T01:06:14.146Z,7.75
2024-01-25T01:08:43.061Z,7.72
2024-01-25T01:11:11.752Z,7.78
2024-01-25T01:13:40.008Z,7.77
2024-01-25T01:16:10.552Z,7.78
2024-01-25T01:18:39.894Z,7.77
2024-01-25T01:21:08.419Z,7.81
2024-01-25T01:23:36.666Z,7.77
2024-01-25T01:26:07.056Z,7.79
2024-01-25T01:28:35.826Z,7.78
2024-01-25T01:31:04.144Z,7.72
2024-01-25T01:33:33.582Z,7.79
2024-01-25T01:36:02.052Z,7.81
2024-01-25T01:38:30.842Z,7.76
2024-01-25T01:40:58.849Z,7.81
2024-01-25T01:43:27.010Z,7.78
2024-01-25T01:46:00.859Z,7.67
2024-01-25T01:48:29.592Z,7.69
2024-01-25T01:50:59.822Z,7.69
2024-01-25T01:53:28.927Z,7.63
2024-01-25T01:55:57.984Z,7.61
2024-01-25T01:58:28.075Z,7.62
2024-01-25T02:00:57.880Z,7.63
2024-01-25T02:03:26.192Z,7.66
2024-01-25T02:05:54.824Z,7.62
2024-01-25T02:08:26.847Z,7.54
2024-01-25T02:10:55.153Z,7.48
2024-01-25T02:13:23.597Z,7.55
2024-01-25T02:15:52.842Z,7.54
2024-01-25T02:18:21.514Z,7.58
2024-01-25T02:20:49.935Z,7.56
2024-01-25T02:23:20.584Z,7.52
2024-01-25T02:25:49.197Z,7.48
2024-01-25T02:28:17.602Z,7.55
2024-01-25T02:30:46.659Z,7.56
2024-01-25T02:33:16.439Z,7.49
2024-01-25T02:35:45.929Z,7.48
2024-01-25T02:38:14.657Z,7.47
2024-01-25T02:40:44.851Z,7.30
2024-01-25T02:43:13.510Z,7.38
2024-01-25T02:45:41.816Z,7.37
2024-01-25T02:48:10.537Z,7.35
2024-01-25T02:50:39.517Z,7.31
2024-01-25T02:53:07.920Z,7.37
2024-01-25T02:55:37.076Z,7.29
2024-01-25T02:58:06.997Z,7.30
2024-01-25T03:00:35.559Z,7.31
2024-01-25T03:03:04.354Z,7.33
2024-01-25T03:05:32.743Z,7.34
2024-01-25T03:08:02.165Z,7.30
2024-01-25T03:10:30.445Z,7.26
2024-01-25T03:12:58.926Z,7.24
2024-01-25T03:15:29.235Z,7.21
2024-01-25T03:17:58.080Z,7.26
2024-01-25T03:20:26.666Z,7.10
2024-01-25T03:22:55.816Z,7.17
2024-01-25T03:25:24.196Z,6.94
2024-01-25T03:27:52.338Z,7.09
2024-01-25T03:30:20.842Z,7.11
2024-01-25T03:32:50.805Z,7.14
2024-01-25T03:35:19.766Z,7.19
2024-01-25T03:37:47.876Z,7.18
2024-01-25T03:40:16.505Z,7.19
2024-01-25T03:42:58.571Z,7.20
2024-01-25T03:45:33.922Z,7.18
2024-01-25T03:48:03.793Z,7.19
2024-01-25T03:50:32.270Z,7.08
2024-01-25T03:53:00.543Z,7.09
2024-01-25T03:55:28.955Z,7.12
2024-01-25T03:57:58.228Z,7.07
2024-01-25T04:00:27.115Z,7.04
2024-01-25T04:02:55.481Z,7.07
2024-01-25T04:05:25.011Z,6.98
2024-01-25T04:07:53.127Z,6.98
2024-01-25T04:10:21.193Z,6.94
2024-01-25T04:12:49.198Z,6.86
2024-01-25T04:15:17.738Z,6.94
2024-01-25T04:17:45.806Z,6.95
2024-01-25T04:20:14.563Z,7.01
2024-01-25T04:22:43.914Z,6.96
2024-01-25T04:25:12.172Z,6.98
2024-01-25T04:27:40.615Z,6.92
2024-01-25T04:30:09.972Z,6.88
2024-01-25T04:32:38.262Z,6.85
2024-01-25T04:35:07.156Z,6.93
2024-01-25T04:37:35.603Z,6.92
2024-01-25T04:40:07.344Z,6.93
2024-01-25T04:42:35.772Z,6.79
2024-01-25T04:45:03.950Z,6.71
2024-01-25T04:47:32.909Z,6.64
2024-01-25T04:50:01.201Z,6.57
2024-01-25T04:52:29.352Z,6.62
2024-01-25T04:54:57.347Z,6.60
2024-01-25T04:57:26.828Z,6.59
2024-01-25T04:59:55.125Z,6.60
2024-01-25T05:02:23.320Z,6.50
2024-01-25T05:04:51.892Z,6.50
2024-01-25T05:07:20.150Z,6.44
2024-01-25T05:09:57.770Z,6.48
2024-01-25T05:12:27.477Z,6.55
2024-01-25T05:14:55.612Z,6.56
2024-01-25T05:17:23.969Z,6.55
2024-01-25T05:19:52.628Z,6.58
2024-01-25T05:22:23.317Z,6.61
2024-01-25T05:24:51.428Z,6.63
2024-01-25T05:27:20.480Z,6.56
2024-01-25T05:29:49.925Z,6.44
2024-01-25T05:32:17.961Z,6.51
2024-01-25T05:34:45.943Z,6.45
2024-01-25T05:37:14.044Z,6.38
2024-01-25T05:39:42.234Z,6.42
2024-01-25T05:42:10.962Z,6.37
2024-01-25T05:44:39.146Z,6.47
2024-01-25T05:47:09.556Z,6.43
2024-01-25T05:49:37.776Z,6.28
2024-01-25T05:52:06.452Z,6.40
2024-01-25T05:54:34.529Z,6.35
2024-01-25T05:57:02.541Z,6.34
2024-01-25T05:59:30.913Z,6.27
2024-01-25T06:01:59.144Z,6.32
2024-01-25T06:04:28.658Z,6.35
2024-01-25T06:06:57.237Z,6.37
2024-01-25T06:09:25.690Z,6.36
2024-01-25T06:11:53.747Z,6.24
2024-01-25T06:14:21.695Z,6.25
2024-01-25T06:16:49.854Z,6.24
2024-01-25T06:19:18.800Z,6.25
2024-01-25T06:21:48.308Z,6.19
2024-01-25T06:24:16.554Z,6.25
2024-01-25T06:26:44.705Z,6.22
2024-01-25T06:29:13.534Z,5.99
2024-01-25T06:31:45.164Z,6.01
2024-01-25T06:34:13.651Z,6.12
2024-01-25T06:36:42.247Z,6.04
2024-01-25T06:39:11.628Z,6.11
2024-01-25T06:41:39.914Z,6.04
2024-01-25T06:44:08.336Z,5.97
2024-01-25T06:46:36.798Z,6.05
2024-01-25T06:49:05.153Z,6.04
2024-01-25T06:51:33.771Z,5.91
2024-01-25T06:54:02.310Z,5.85
2024-01-25T06:56:32.572Z,5.83
2024-01-25T06:58:59.712Z,5.84
2024-01-25T07:01:29.378Z,5.77
2024-01-25T07:03:58.523Z,5.74
2024-01-25T07:06:27.519Z,5.71
2024-01-25T07:08:55.660Z,5.73
2024-01-25T07:11:24.227Z,5.83
2024-01-25T07:13:53.940Z,5.75
2024-01-25T07:16:22.984Z,5.70
2024-01-25T07:18:51.220Z,5.68
2024-01-25T07:21:20.274Z,5.59
2024-01-25T07:23:48.296Z,5.56
2024-01-25T07:26:19.483Z,5.45
2024-01-25T07:28:48.479Z,5.45
2024-01-25T07:31:18.084Z,5.48
2024-01-25T07:33:46.403Z,5.40
2024-01-25T07:36:16.961Z,5.38
2024-01-25T07:38:47.880Z,5.37
2024-01-25T07:41:16.348Z,5.28
2024-01-25T07:43:44.577Z,5.37
2024-01-25T07:46:16.259Z,5.40
2024-01-25T07:48:46.337Z,5.46
2024-01-25T07:51:14.633Z,5.44
2024-01-25T07:53:42.781Z,5.43
2024-01-25T07:56:12.147Z,5.34
2024-01-25T07:58:40.632Z,5.41
2024-01-25T08:01:09.354Z,5.42
2024-01-25T08:03:38.165Z,5.50
2024-01-25T08:06:09.070Z,5.47
2024-01-25T08:08:38.176Z,5.50
2024-01-25T08:11:06.672Z,5.54
2024-01-25T08:13:35.940Z,5.56
2024-01-25T08:16:04.502Z,5.60
2024-01-25T08:18:32.706Z,5.55
2024-01-25T08:21:02.114Z,5.57
2024-01-25T08:23:31.486Z,5.58
2024-01-25T08:26:00.196Z,5.68
2024-01-25T08:28:28.171Z,5.76
2024-01-25T08:30:56.480Z,5.63
2024-01-25T08:33:25.885Z,5.64
2024-01-25T08:35:54.525Z,5.64
2024-01-25T08:38:22.812Z,5.91
2024-01-25T08:40:52.220Z,5.99
2024-01-25T08:43:20.193Z,5.98
2024-01-25T08:46:06.848Z,5.96
2024-01-25T08:48:35.062Z,6.07
2024-01-25T08:51:03.253Z,6.07
2024-01-25T08:53:31.373Z,6.25
2024-01-25T08:56:04.245Z,6.28
2024-01-25T08:58:33.996Z,6.38
2024-01-25T09:01:03.478Z,6.35
2024-01-25T09:03:32.410Z,6.27
2024-01-25T09:06:06.439Z,6.39
2024-01-25T09:08:35.272Z,6.39
2024-01-25T09:11:04.862Z,6.45
2024-01-25T09:13:33.524Z,6.49
2024-01-25T09:16:01.791Z,6.60
2024-01-25T09:18:29.898Z,6.63
2024-01-25T09:20:57.892Z,6.61
2024-01-25T09:23:25.956Z,6.64
2024-01-25T09:25:54.047Z,6.69
2024-01-25T09:28:23.668Z,6.61
2024-01-25T09:30:52.654Z,6.65
2024-01-25T09:33:21.296Z,6.65
2024-01-25T09:35:50.126Z,6.68
2024-01-25T09:38:19.265Z,6.59
2024-01-25T09:40:47.764Z,6.68
2024-01-25T09:43:15.892Z,6.73
2024-01-25T09:45:46.382Z,6.53
2024-01-25T09:48:15.234Z,6.70
2024-01-25T09:50:43.657Z,6.86
2024-01-25T09:53:19.970Z,6.96
2024-01-25T09:55:51.121Z,6.98
2024-01-25T09:58:19.666Z,6.81
2024-01-25T10:00:51.389Z,6.71
2024-01-25T10:03:19.535Z,6.72
2024-01-25T10:05:47.850Z,6.76
2024-01-25T10:08:19.041Z,6.71
2024-01-25T10:10:47.616Z,6.85
2024-01-25T10:13:15.869Z,6.96
2024-01-25T10:15:46.168Z,7.07
2024-01-25T10:18:24.611Z,6.89
2024-01-25T10:20:58.145Z,6.86
2024-01-25T10:23:27.257Z,6.71
2024-01-25T10:25:55.890Z,6.71
2024-01-25T10:28:27.013Z,6.86
2024-01-25T10:30:59.077Z,6.89
2024-01-25T10:33:30.155Z,6.84
2024-01-25T10:36:02.950Z,6.86
2024-01-25T10:38:32.874Z,6.97
2024-01-25T10:41:03.308Z,6.92
2024-01-25T10:43:32.690Z,6.90
2024-01-25T10:46:04.558Z,6.92
2024-01-25T10:48:35.113Z,6.92
2024-01-25T10:51:04.969Z,6.98
2024-01-25T10:53:36.111Z,7.11
2024-01-25T10:56:05.480Z,7.24
2024-01-25T10:58:38.305Z,7.32
2024-01-25T11:01:15.823Z,7.22
2024-01-25T11:03:48.996Z,7.22
2024-01-25T11:06:18.135Z,7.17
2024-01-25T11:08:46.068Z,7.29
2024-01-25T11:11:16.908Z,7.16
2024-01-25T11:13:45.761Z,7.26
2024-01-25T11:16:16.272Z,7.30
2024-01-25T11:18:54.216Z,7.23
2024-01-25T11:21:28.591Z,7.36
2024-01-25T11:24:04.105Z,7.62
2024-01-25T11:26:35.096Z,7.68
2024-01-25T11:29:02.993Z,7.77
2024-01-25T11:31:31.452Z,7.86
2024-01-25T11:34:01.940Z,7.99
2024-01-25T11:36:30.923Z,8.09
2024-01-25T11:39:02.585Z,8.22
2024-01-25T11:41:30.969Z,8.14
2024-01-25T11:43:59.121Z,8.01
2024-01-25T11:46:27.757Z,7.91
2024-01-25T11:48:56.012Z,8.12
2024-01-25T11:51:25.580Z,8.26
2024-01-25T11:53:53.724Z,8.21
2024-01-25T11:56:26.975Z,8.16
2024-01-25T11:58:57.830Z,8.05
2024-01-25T12:01:27.267Z,8.12
2024-01-25T12:03:56.274Z,8.15
2024-01-25T12:06:26.152Z,8.31
2024-01-25T12:08:54.391Z,8.13
2024-01-25T12:11:23.874Z,8.06
2024-01-25T12:13:51.881Z,8.13
2024-01-25T12:16:20.811Z,8.12
2024-01-25T12:18:49.076Z,8.12
2024-01-25T12:21:17.216Z,8.18
2024-01-25T12:23:46.715Z,8.14
2024-01-25T12:26:15.069Z,8.22
2024-01-25T12:28:43.381Z,8.41
2024-01-25T12:31:11.664Z,8.36
2024-01-25T12:33:39.995Z,8.36
2024-01-25T12:36:08.799Z,8.41
2024-01-25T12:38:37.095Z,8.32
2024-01-25T12:41:06.967Z,8.30
2024-01-25T12:43:35.334Z,8.29
2024-01-25T12:46:09.754Z,8.44
2024-01-25T12:48:49.878Z,8.60
2024-01-25T12:51:18.282Z,8.51
2024-01-25T12:53:46.333Z,8.42
2024-01-25T12:56:16.510Z,8.28
2024-01-25T12:58:44.612Z,8.23
2024-01-25T13:01:14.051Z,8.28
2024-01-25T13:03:46.560Z,8.33
2024-01-25T13:06:14.920Z,8.35
2024-01-25T13:08:42.983Z,8.33
2024-01-25T13:11:11.128Z,8.32
2024-01-25T13:13:40.852Z,8.36
2024-01-25T13:16:10.082Z,8.26
2024-01-25T13:18:38.568Z,8.14
2024-01-25T13:21:06.951Z,8.08
2024-01-25T13:23:35.064Z,7.98
2024-01-25T13:26:03.449Z,7.99
2024-01-25T13:28:31.749Z,7.92
2024-01-25T13:31:01.584Z,7.83
2024-01-25T13:33:30.100Z,7.81
2024-01-25T13:35:58.217Z,7.90
2024-01-25T13:38:26.286Z,7.81
2024-01-25T13:40:54.450Z,7.80
2024-01-25T13:43:22.664Z,7.75
2024-01-25T13:45:50.686Z,7.57
2024-01-25T13:48:20.317Z,7.58
2024-01-25T13:50:48.763Z,7.57
2024-01-25T13:53:16.604Z,7.57
2024-01-25T13:55:44.562Z,7.56
2024-01-25T13:58:12.730Z,7.43
2024-01-25T14:00:42.070Z,7.47
2024-01-25T14:03:10.075Z,7.42
2024-01-25T14:05:39.521Z,7.42
2024-01-25T14:08:09.162Z,7.48
2024-01-25T14:10:37.583Z,7.51
2024-01-25T14:13:06.059Z,7.52
2024-01-25T14:15:34.448Z,7.67
2024-01-25T14:18:03.345Z,7.58
2024-01-25T14:20:31.876Z,7.50
2024-01-25T14:23:01.543Z,7.37
2024-01-25T14:25:30.237Z,7.54
2024-01-25T14:27:58.948Z,7.57
2024-01-25T14:30:27.611Z,7.45
2024-01-25T14:32:57.180Z,7.39
2024-01-25T14:35:29.195Z,7.20
2024-01-25T14:37:57.658Z,7.23
2024-01-25T14:40:43.396Z,7.29
2024-01-25T14:43:16.235Z,7.21
2024-01-25T14:45:47.164Z,7.10
2024-01-25T14:48:15.412Z,7.13
2024-01-25T14:50:43.707Z,7.09
2024-01-25T14:53:12.595Z,7.05
2024-01-25T14:55:42.359Z,7.05
2024-01-25T14:58:11.213Z,6.99
2024-01-25T15:00:39.339Z,7.07
2024-01-25T15:03:08.311Z,6.98
2024-01-25T15:05:37.026Z,7.04
2024-01-25T15:08:05.941Z,7.15
2024-01-25T15:10:33.993Z,7.33
2024-01-25T15:13:04.167Z,7.11
2024-01-25T15:15:32.495Z,6.95
2024-01-25T15:18:01.138Z,6.81
2024-01-25T15:20:29.597Z,6.72
2024-01-25T15:22:59.031Z,6.99
2024-01-25T15:25:27.865Z,6.92
2024-01-25T15:27:56.135Z,6.78
2024-01-25T15:30:26.699Z,6.54
2024-01-25T15:32:54.989Z,6.66
2024-01-25T15:35:23.423Z,6.55
2024-01-25T15:37:51.626Z,6.56
2024-01-25T15:40:20.619Z,6.41
2024-01-25T15:42:52.632Z,6.31
2024-01-25T15:45:21.795Z,5.99
2024-01-25T15:47:51.874Z,6.20
2024-01-25T15:50:20.849Z,6.40
2024-01-25T15:52:49.388Z,6.70
2024-01-25T15:55:17.634Z,6.86
2024-01-25T15:57:45.898Z,6.88
2024-01-25T16:00:16.140Z,6.68
2024-01-25T16:02:44.413Z,6.51
2024-01-25T16:05:14.112Z,6.39
2024-01-25T16:07:49.004Z,6.36
2024-01-25T16:10:19.326Z,6.37
2024-01-25T16:12:47.563Z,6.43
2024-01-25T16:15:17.654Z,6.47
2024-01-25T16:17:46.290Z,6.51
2024-01-25T16:20:16.518Z,6.39
2024-01-25T16:22:44.593Z,6.38
2024-01-25T16:25:12.721Z,6.10
2024-01-25T16:27:40.950Z,5.89
2024-01-25T16:30:10.153Z,6.02
2024-01-25T16:32:38.330Z,6.00
2024-01-25T16:35:07.383Z,5.97
2024-01-25T16:37:36.959Z,5.75
2024-01-25T16:40:05.958Z,5.59
2024-01-25T16:42:34.005Z,5.51
2024-01-25T16:45:01.914Z,5.46
2024-01-25T16:47:29.833Z,5.47
2024-01-25T16:49:58.294Z,5.45
2024-01-25T16:52:26.503Z,5.41
2024-01-25T16:54:55.973Z,5.43
2024-01-25T16:57:24.338Z,5.51
2024-01-25T16:59:54.528Z,5.57
2024-01-25T17:02:22.578Z,5.53
2024-01-25T17:04:50.887Z,5.68
2024-01-25T17:07:19.320Z,5.63
2024-01-25T17:09:47.612Z,5.58
2024-01-25T17:12:18.721Z,5.39
2024-01-25T17:14:46.781Z,5.49
2024-01-25T17:17:14.968Z,5.55
2024-01-25T17:19:43.003Z,5.38
2024-01-25T17:22:11.128Z,5.22
2024-01-25T17:24:39.409Z,5.24
2024-01-25T17:27:07.372Z,5.51
2024-01-25T17:29:36.950Z,5.48
2024-01-25T17:32:05.753Z,5.72
2024-01-25T17:34:34.694Z,5.40
2024-01-25T17:37:02.998Z,5.21
2024-01-25T17:39:31.195Z,5.03
2024-01-25T17:41:59.150Z,4.94
2024-01-25T17:44:28.120Z,4.78
2024-01-25T17:46:57.674Z,4.77
2024-01-25T17:49:26.345Z,4.73
2024-01-25T17:51:55.280Z,4.63
2024-01-25T17:54:23.603Z,4.55
2024-01-25T17:56:51.904Z,4.59
2024-01-25T17:59:22.285Z,4.66
2024-01-25T18:01:51.019Z,4.65
2024-01-25T18:04:21.731Z,4.61
2024-01-25T18:06:50.474Z,4.57
2024-01-25T18:09:18.943Z,4.54
2024-01-25T18:11:47.871Z,4.55
2024-01-25T18:14:15.923Z,4.56
2024-01-25T18:16:44.480Z,4.63
2024-01-25T18:19:13.050Z,4.70
2024-01-25T18:21:45.958Z,4.67
2024-01-25T18:24:14.982Z,4.62
2024-01-25T18:26:45.072Z,4.51
2024-01-25T18:29:14.644Z,4.42
2024-01-25T18:31:43.056Z,4.29
2024-01-25T18:34:11.093Z,4.41
2024-01-25T18:36:39.161Z,4.71
2024-01-25T18:39:08.779Z,4.85
2024-01-25T18:41:37.142Z,4.68
2024-01-25T18:44:05.416Z,4.29
2024-01-25T18:46:36.075Z,4.08
2024-01-25T18:49:04.417Z,3.86
2024-01-25T18:51:32.740Z,3.91
2024-01-25T18:54:01.400Z,4.18
2024-01-25T18:56:31.737Z,4.05
2024-01-25T18:59:00.280Z,4.05
2024-01-25T19:01:29.053Z,3.85
2024-01-25T19:03:58.187Z,3.89
2024-01-25T19:06:35.404Z,3.98
2024-01-25T19:09:04.642Z,4.00
2024-01-25T19:11:34.459Z,4.22
2024-01-25T19:14:03.104Z,4.33
2024-01-25T19:16:31.170Z,4.36
2024-01-25T19:18:59.666Z,4.39
2024-01-25T19:21:28.130Z,4.58
2024-01-25T19:23:56.396Z,4.60
2024-01-25T19:26:24.658Z,4.66
2024-01-25T19:28:54.140Z,4.95
2024-01-25T19:31:22.980Z,5.06
2024-01-25T19:33:51.125Z,5.08
2024-01-25T19:36:19.577Z,5.19
2024-01-25T19:38:47.771Z,5.15
2024-01-25T19:41:16.239Z,4.85
2024-01-25T19:43:45.048Z,4.60
2024-01-25T19:46:14.613Z,4.76
2024-01-25T19:48:42.698Z,4.65
2024-01-25T19:51:10.857Z,4.53
2024-01-25T19:53:38.840Z,4.65
2024-01-25T19:56:07.629Z,4.84
2024-01-25T19:58:36.707Z,4.96
2024-01-25T20:01:06.858Z,5.07
2024-01-25T20:03:37.089Z,4.88
2024-01-25T20:06:05.976Z,4.91
2024-01-25T20:08:34.748Z,5.15
2024-01-25T20:11:02.818Z,5.15
2024-01-25T20:13:31.737Z,5.17
2024-01-25T20:15:59.929Z,5.25
2024-01-25T20:18:29.091Z,5.25
2024-01-25T20:21:01.002Z,5.30
2024-01-25T20:23:30.226Z,5.48
2024-01-25T20:25:59.055Z,5.56
2024-01-25T20:28:27.418Z,5.68
2024-01-25T20:30:55.547Z,5.71
2024-01-25T20:33:24.192Z,5.84
2024-01-25T20:35:52.434Z,5.89
2024-01-25T20:38:22.052Z,6.08
2024-01-25T20:40:50.655Z,6.02
2024-01-25T20:43:19.048Z,6.05
2024-01-25T20:45:47.413Z,6.00
2024-01-25T20:48:15.639Z,6.00
2024-01-25T20:50:43.927Z,5.94
2024-01-25T20:53:12.267Z,5.99
2024-01-25T20:55:42.042Z,5.95
2024-01-25T20:58:10.562Z,5.90
2024-01-25T21:00:40.523Z,5.94
2024-01-25T21:03:10.339Z,5.92
2024-01-25T21:05:39.170Z,5.95
2024-01-25T21:08:09.054Z,5.99
2024-01-25T21:10:38.462Z,6.01
2024-01-25T21:13:09.087Z,6.05
2024-01-25T21:15:37.656Z,6.12
2024-01-25T21:18:06.631Z,6.12
2024-01-25T21:20:35.680Z,6.20
2024-01-25T21:23:04.348Z,6.26
2024-01-25T21:25:32.863Z,6.29
2024-01-25T21:28:01.772Z,6.22
2024-01-25T21:30:31.681Z,6.28
2024-01-25T21:33:01.139Z,6.25
2024-01-25T21:35:29.477Z,6.28
2024-01-25T21:37:57.899Z,6.39
2024-01-25T21:40:27.207Z,6.40
2024-01-25T21:42:55.793Z,6.37
2024-01-25T21:45:24.143Z,6.30
2024-01-25T21:47:53.870Z,6.27
2024-01-25T21:50:22.538Z,6.26
2024-01-25T21:52:50.718Z,6.22
2024-01-25T21:55:21.359Z,6.21
2024-01-25T21:57:50.520Z,6.18
2024-01-25T22:00:20.931Z,6.18
2024-01-25T22:02:50.006Z,6.19
2024-01-25T22:05:20.699Z,6.25
2024-01-25T22:07:49.178Z,6.25
2024-01-25T22:10:17.611Z,6.26
2024-01-25T22:12:45.846Z,6.24
2024-01-25T22:15:14.358Z,6.13
2024-01-25T22:17:42.781Z,6.10
2024-01-25T22:20:12.768Z,6.25
2024-01-25T22:22:42.351Z,6.35
2024-01-25T22:25:12.697Z,6.34
2024-01-25T22:27:41.102Z,6.34
2024-01-25T22:30:09.893Z,6.34
2024-01-25T22:32:37.987Z,6.31
2024-01-25T22:35:07.210Z,6.20
2024-01-25T22:37:36.361Z,6.24
2024-01-25T22:40:08.092Z,6.27
2024-01-25T22:42:36.898Z,6.35
2024-01-25T22:45:06.463Z,6.25
2024-01-25T22:47:34.947Z,6.13
2024-01-25T22:50:03.837Z,6.26
2024-01-25T22:52:31.889Z,6.34
2024-01-25T22:55:00.830Z,6.38
2024-01-25T22:57:31.139Z,6.39
2024-01-25T23:00:00.079Z,6.36
2024-01-25T23:02:28.340Z,6.43
2024-01-25T23:04:56.591Z,6.41
2024-01-25T23:07:25.135Z,6.37
2024-01-25T23:09:53.629Z,6.26
2024-01-25T23:12:22.194Z,6.47
2024-01-25T23:14:52.098Z,6.46
2024-01-25T23:17:20.257Z,6.35
2024-01-25T23:19:48.633Z,6.52
2024-01-25T23:22:17.104Z,6.67
2024-01-25T23:24:45.460Z,6.69
2024-01-25T23:27:14.038Z,6.77
2024-01-25T23:29:42.224Z,6.74
2024-01-25T23:32:11.638Z,6.83
2024-01-25T23:34:39.930Z,6.96
2024-01-25T23:37:08.183Z,6.98
2024-01-25T23:39:36.472Z,6.84
2024-01-25T23:42:05.093Z,6.96
2024-01-25T23:44:33.313Z,7.03
2024-01-25T23:47:02.153Z,7.16
2024-01-25T23:49:31.982Z,7.20
2024-01-25T23:52:00.946Z,7.15
2024-01-25T23:54:29.176Z,7.14
2024-01-25T23:56:57.330Z,7.11
2024-01-25T23:59:25.653Z,6.85
